Main page
METAR-TAF:

METAR-TAF

Airports :

Rabat, Morocco

Rabat–Salé Airport

latitude: 34-03N, longitude: 006-46W, elevation: 84 m

Current weather observation

The report was made 29 minutes ago, at 22:30 UTC
Wind 2 kt from the South
Temperature 22°C
Humidity 88%
Pressure 1015 hPa
Visibility: 5000 m
Broken clouds at a height of 600 ft

METAR: GMME 232230Z 17002KT 5000 BKN006 22/20 Q1015 NOSIG

Time: 23:59 (22:59 UTC)

Forecast

The report was made 5 hours and 58 minutes ago, at 17:01 UTC
Forecast valid from 23 at 18 UTC to 24 at 24 UTC
Wind 8 kt from the Northwest
Visibility: 6000 m
Scattered clouds at a height of 1000 ft
Temporary
from 23 at 20 UTC to 24 at 07 UTC
Wind 7 kt from the South/Southwest
Visibility: 3000 m
Broken clouds at a height of 600 ft
mist
Probability %
between 30 and UTC
Temporary
from 24 at 04 UTC to 24 at 07 UTC
Wind 2 kt from variable directions
Visibility: 0600 m
fog

TAF: GMME 231701Z 2318/2424 32008KT 6000 SCT010 TEMPO 2320/2407 20007KT 3000 BR BKN006 PROB 30 TEMPO 2404/2407 VRB02KT 0600 FG

Weather observations and forecasts of more than 4000 airports (METAR and TAF reports).

The available stations are represented by yellow and red dots on the map.

Hover mouse over dot to see the name of the station.

Then click to see weather observations and forecasts.

To change the map : click on the green buttons with a black cross to zoom in, on the green button with a dash to zoom out, or on the green arrows for adjacent maps.


METAR-TAF: